Time;durP1;ratioP1;P1;durP2;ratioP2;P2;SDS_P1;SDS_P2;PMS_P1;PMS_P2;Temp;Humidity;BMP_temperature;BMP_pressure;BME280_temperature;BME280_humidity;BME280_pressure;Samples;Min_cycle;Max_cycle;Signal;HPM_P1;HPM_P2
2022/02/25 00:01:02;;;;;;;;;74.00;57.00;;;;;1.40;76.01;99757.63;6312830;20;2873149;-53
2022/02/25 00:03:31;;;;;;;;;64.50;50.00;;;;;1.84;74.63;99754.81;6282557;20;2857569;-55
2022/02/25 00:06:00;;;;;;;;;62.50;50.00;;;;;2.13;73.39;99754.97;6281201;20;2856496;-55
2022/02/25 00:08:28;;;;;;;;;72.00;56.00;;;;;1.73;74.31;99750.66;6279339;20;2500256;-54
2022/02/25 00:10:56;;;;;;;;;70.50;54.00;;;;;1.61;75.19;99756.25;6282682;20;2875307;-50
2022/02/25 00:13:25;;;;;;;;;59.50;46.00;;;;;1.52;75.70;99752.03;6282224;20;2869053;-52
2022/02/25 00:15:57;;;;;;;;;50.50;44.50;;;;;1.37;76.15;99756.81;6279995;20;2872168;-53
2022/02/25 00:18:27;;;;;;;;;56.00;44.50;;;;;1.37;75.52;99762.09;6282848;20;2861987;-55
2022/02/25 00:20:56;;;;;;;;;54.33;44.33;;;;;1.20;77.09;99754.56;6282745;20;2881557;-54
2022/02/25 00:23:25;;;;;;;;;56.50;46.00;;;;;1.22;75.63;99752.75;6315663;20;2856601;-55
2022/02/25 00:25:54;;;;;;;;;68.00;44.00;;;;;1.22;75.18;99748.34;6279825;20;2885809;-54
2022/02/25 00:28:23;;;;;;;;;60.00;44.50;;;;;0.95;75.60;99747.19;6281248;20;2849207;-55
2022/02/25 00:30:51;;;;;;;;;54.00;45.00;;;;;1.35;75.50;99748.94;6281007;20;2467997;-54
2022/02/25 00:33:19;;;;;;;;;49.50;39.00;;;;;1.43;75.09;99746.97;6276880;20;2500286;-52
2022/02/25 00:35:50;;;;;;;;;57.50;43.00;;;;;0.84;75.38;99746.50;6279120;20;2495070;-50
2022/02/25 00:38:21;;;;;;;;;60.67;40.00;;;;;0.98;75.37;99733.88;6281266;20;2896196;-51
2022/02/25 00:40:51;;;;;;;;;59.00;47.50;;;;;0.84;75.05;99736.84;6313605;20;2856614;-51
2022/02/25 00:43:20;;;;;;;;;52.00;44.00;;;;;0.69;75.89;99731.00;6276357;20;2498303;-54
2022/02/25 00:45:47;;;;;;;;;58.50;44.00;;;;;0.81;75.83;99746.59;6279311;20;2493106;-54
2022/02/25 00:48:16;;;;;;;;;53.50;43.50;;;;;1.10;74.32;99738.88;6279247;20;2859669;-55
2022/02/25 00:50:45;;;;;;;;;57.00;45.50;;;;;0.46;76.03;99728.81;6284137;20;2885686;-55
2022/02/25 00:53:14;;;;;;;;;58.50;44.50;;;;;0.74;75.84;99724.72;6281162;20;2846091;-54
2022/02/25 00:55:42;;;;;;;;;66.00;46.50;;;;;0.43;76.37;99717.41;6279027;20;2484656;-53
2022/02/25 00:58:12;;;;;;;;;54.33;41.00;;;;;0.59;75.97;99720.63;6278649;20;2884801;-56
2022/02/25 01:00:41;;;;;;;;;63.00;42.00;;;;;0.87;76.15;99725.34;6313962;20;2874211;-55
2022/02/25 01:03:13;;;;;;;;;47.33;38.33;;;;;1.08;75.01;99713.41;6313224;20;2879442;-55
2022/02/25 01:05:42;;;;;;;;;50.50;42.00;;;;;0.71;76.18;99702.75;6311301;20;2863783;-54
2022/02/25 01:08:10;;;;;;;;;48.50;41.50;;;;;0.79;77.13;99711.38;6279687;20;2873445;-56
2022/02/25 01:10:39;;;;;;;;;37.50;36.50;;;;;1.02;75.54;99727.63;6282578;20;2842304;-56
2022/02/25 01:13:07;;;;;;;;;48.00;39.00;;;;;1.29;74.98;99728.78;6275828;20;2504500;-55
2022/02/25 01:15:35;;;;;;;;;51.00;42.00;;;;;1.16;76.18;99727.34;6278826;20;2508580;-53
2022/02/25 01:18:06;;;;;;;;;52.00;41.00;;;;;0.91;76.45;99731.41;6280977;20;2872133;-52
2022/02/25 01:20:39;;;;;;;;;57.67;41.00;;;;;1.08;76.74;99732.78;6278515;20;2880503;-55
2022/02/25 01:23:09;;;;;;;;;58.00;40.33;;;;;0.76;76.39;99722.03;6312622;20;2875307;-55
2022/02/25 01:25:38;;;;;;;;;45.00;35.50;;;;;0.95;76.87;99722.50;6309230;20;2872153;-53
2022/02/25 01:28:07;;;;;;;;;54.00;41.50;;;;;0.68;77.30;99716.03;6277997;20;2871202;-52
2022/02/25 01:30:36;;;;;;;;;51.50;43.00;;;;;1.23;75.34;99717.47;6279271;20;2861811;-54
2022/02/25 01:33:05;;;;;;;;;60.33;48.67;;;;;1.27;75.84;99716.50;6280418;20;3571055;-52
2022/02/25 01:35:35;;;;;;;;;51.67;42.00;;;;;1.34;75.07;99712.78;6279079;20;2876351;-54
2022/02/25 01:38:04;;;;;;;;;62.00;51.00;;;;;1.52;74.38;99709.69;6312791;20;2862787;-52
2022/02/25 01:40:33;;;;;;;;;57.50;43.50;;;;;0.96;77.07;99690.75;6278950;20;2864834;-56
2022/02/25 01:43:00;;;;;;;;;28.00;19.00;;;;;0.57;79.05;99693.34;6276467;20;2843153;-55
2022/02/25 01:45:32;;;;;;;;;55.00;45.00;;;;;0.42;78.67;99691.00;6281165;20;2865945;-55
2022/02/25 01:48:02;;;;;;;;;53.67;44.33;;;;;0.55;78.54;99703.06;6275477;20;2867959;-55
2022/02/25 01:50:31;;;;;;;;;51.00;45.50;;;;;0.92;76.63;99702.28;6308781;20;2850272;-55
2022/02/25 01:53:07;;;;;;;;;44.00;41.00;;;;;0.88;77.30;99705.91;6280656;20;2863877;-52
2022/02/25 01:55:40;;;;;;;;;46.00;41.00;;;;;0.48;79.33;99696.19;6279954;20;2864824;-55
2022/02/25 01:58:09;;;;;;;;;41.00;33.50;;;;;0.72;78.60;99688.66;6275922;20;2500302;-60
2022/02/25 02:00:38;;;;;;;;;59.50;43.00;;;;;0.76;77.98;99677.09;6281670;20;2875277;-55
2022/02/25 02:03:08;;;;;;;;;58.33;44.00;;;;;0.43;79.44;99680.44;6279623;20;2874240;-56
2022/02/25 02:05:38;;;;;;;;;56.50;43.00;;;;;0.80;79.03;99676.16;6306445;20;2857010;-55
2022/02/25 02:08:07;;;;;;;;;55.00;44.50;;;;;0.55;78.22;99675.78;6279805;20;2861745;-55
2022/02/25 02:10:35;;;;;;;;;51.00;45.50;;;;;0.39;80.25;99677.88;6283661;20;2873156;-54
2022/02/25 02:13:04;;;;;;;;;50.50;42.50;;;;;0.74;78.22;99678.91;6285261;20;2856584;-52
2022/02/25 02:15:33;;;;;;;;;55.00;39.00;;;;;0.19;80.38;99679.16;6283485;20;2764827;-54
2022/02/25 02:18:02;;;;;;;;;55.50;39.50;;;;;0.29;81.26;99671.03;6317261;20;2874209;-54
2022/02/25 02:20:31;;;;;;;;;45.00;36.50;;;;;1.01;77.39;99686.22;6279454;20;2868998;-52
2022/02/25 02:23:00;;;;;;;;;54.00;45.50;;;;;1.16;76.64;99694.72;6285845;20;2875375;-51
2022/02/25 02:25:29;;;;;;;;;53.00;43.67;;;;;0.86;78.41;99689.22;6282516;20;2862804;-50
2022/02/25 02:30:49;;;;;;;;;51.67;36.33;;;;;0.09;80.66;99679.38;6316450;20;2890972;-55
2022/02/25 02:33:18;;;;;;;;;44.50;35.00;;;;;0.41;79.42;99681.38;6314469;20;2852814;-52
2022/02/25 02:35:49;;;;;;;;;48.50;41.00;;;;;0.56;79.75;99678.41;6281787;20;2863097;-52
2022/02/25 02:38:17;;;;;;;;;45.00;36.00;;;;;0.81;79.04;99678.75;6280102;20;2500401;-55
2022/02/25 02:40:45;;;;;;;;;53.00;42.50;;;;;0.11;80.61;99673.16;6282821;20;2871828;-54
2022/02/25 02:43:14;;;;;;;;;45.00;37.50;;;;;0.07;81.80;99679.38;6285679;20;2865878;-57
2022/02/25 02:45:43;;;;;;;;;49.50;39.50;;;;;0.38;79.78;99673.50;6282988;20;2879467;-56
2022/02/25 02:48:13;;;;;;;;;53.00;41.33;;;;;0.13;81.21;99667.84;6284484;20;2879453;-55
2022/02/25 02:50:43;;;;;;;;;55.00;43.33;;;;;0.34;80.58;99672.72;6316187;20;2871474;-54
2022/02/25 02:53:13;;;;;;;;;52.00;43.00;;;;;0.08;81.23;99673.22;6317241;20;2869062;-54
2022/02/25 02:55:44;;;;;;;;;65.00;52.00;;;;;0.45;80.52;99669.84;6282682;20;2862766;-54
2022/02/25 02:58:13;;;;;;;;;67.00;51.00;;;;;0.02;80.83;99668.03;6280995;20;2503475;-53
2022/02/25 03:00:45;;;;;;;;;68.50;51.00;;;;;0.22;80.67;99668.53;6280004;20;2492961;-53
2022/02/25 03:03:14;;;;;;;;;65.50;48.50;;;;;0.42;79.12;99660.22;6284391;20;2878408;-53
2022/02/25 03:05:46;;;;;;;;;47.00;39.00;;;;;0.18;80.45;99665.97;6281024;20;2877340;-50
2022/02/25 03:08:17;;;;;;;;;52.67;39.00;;;;;0.55;79.66;99659.94;6283270;20;2875347;-54
2022/02/25 03:10:47;;;;;;;;;41.50;38.50;;;;;0.26;80.38;99661.41;6314458;20;2864825;-53
2022/02/25 03:13:16;;;;;;;;;48.00;38.00;;;;;0.73;78.58;99663.97;6284654;20;2868992;-52
2022/02/25 03:15:47;;;;;;;;;50.33;38.33;;;;;0.17;80.49;99673.03;6282464;20;2882740;-52
2022/02/25 03:18:16;;;;;;;;;49.00;43.50;;;;;0.19;80.60;99652.75;6314400;20;2867959;-53
2022/02/25 03:20:44;;;;;;;;;44.50;33.00;;;;;-0.02;80.68;99648.78;6280245;20;2504432;-52
2022/02/25 03:23:12;;;;;;;;;34.50;33.50;;;;;-0.25;82.51;99638.63;6281122;20;2508632;-51
2022/02/25 03:25:41;;;;;;;;;54.50;41.00;;;;;-0.12;82.56;99638.41;6282702;20;2873207;-52
2022/02/25 03:28:09;;;;;;;;;47.00;41.50;;;;;-0.02;81.80;99653.19;6279228;20;2504417;-54
2022/02/25 03:30:37;;;;;;;;;48.50;40.00;;;;;0.48;80.08;99653.94;6280031;20;2500306;-51
2022/02/25 03:33:07;;;;;;;;;66.00;46.67;;;;;0.61;79.65;99667.75;6280820;20;2864939;-55
2022/02/25 03:35:38;;;;;;;;;75.00;53.50;;;;;0.81;78.96;99668.16;6314335;20;2879524;-52
2022/02/25 03:38:06;;;;;;;;;53.00;45.00;;;;;0.71;79.29;99671.03;6281508;20;2503484;-55
2022/02/25 03:40:35;;;;;;;;;58.00;44.00;;;;;0.74;78.87;99671.88;6284089;20;2870039;-55
2022/02/25 03:43:04;;;;;;;;;53.50;46.00;;;;;0.71;78.86;99673.69;6280486;20;2861823;-51
2022/02/25 03:45:33;;;;;;;;;49.50;44.50;;;;;0.29;80.39;99660.47;6282080;20;2856489;-55
2022/02/25 03:48:01;;;;;;;;;62.00;46.50;;;;;0.00;81.62;99646.13;6279431;20;2508612;-54
2022/02/25 03:50:29;;;;;;;;;56.50;48.00;;;;;-0.01;82.00;99636.44;6277868;20;2498257;-51
2022/02/25 03:52:58;;;;;;;;;52.00;44.50;;;;;0.17;81.36;99630.78;6283162;20;2861809;-54
2022/02/25 03:55:27;;;;;;;;;51.50;44.00;;;;;0.08;80.56;99628.34;6282940;20;2849254;-54
2022/02/25 03:57:56;;;;;;;;;54.00;43.50;;;;;0.39;80.31;99643.56;6282018;20;2861702;-54
2022/02/25 04:00:25;;;;;;;;;59.50;46.00;;;;;0.27;80.97;99633.25;6281602;20;2860710;-54
2022/02/25 04:02:55;;;;;;;;;59.00;46.50;;;;;-0.16;81.88;99618.25;6283799;20;2836719;-54
2022/02/25 04:05:26;;;;;;;;;61.50;42.50;;;;;-0.31;82.68;99622.94;6281441;20;2867003;-54
2022/02/25 04:07:55;;;;;;;;;58.50;45.00;;;;;0.31;81.53;99640.19;6282231;20;2842950;-53
2022/02/25 04:10:26;;;;;;;;;55.00;47.00;;;;;0.25;80.69;99661.47;6280635;20;2502389;-54
2022/02/25 04:12:55;;;;;;;;;43.50;39.50;;;;;0.26;80.36;99657.91;6283614;20;2871192;-53
2022/02/25 04:15:24;;;;;;;;;61.00;46.50;;;;;0.09;81.35;99645.91;6283571;20;2851340;-54
2022/02/25 04:17:53;;;;;;;;;50.00;40.33;;;;;0.35;80.56;99652.44;6282571;20;2882599;-53
2022/02/25 04:20:23;;;;;;;;;54.00;42.33;;;;;0.41;79.80;99657.59;6310905;20;2862728;-55
2022/02/25 04:22:53;;;;;;;;;52.67;40.67;;;;;0.26;79.90;99648.22;6311812;20;2884764;-52
2022/02/25 04:25:22;;;;;;;;;51.50;46.50;;;;;0.06;80.97;99642.47;6310842;20;2863773;-53
2022/02/25 04:27:51;;;;;;;;;54.00;42.00;;;;;0.50;80.32;99645.97;6280840;20;2877430;-53
2022/02/25 04:30:24;;;;;;;;;49.00;43.00;;;;;0.43;79.87;99651.38;6310618;20;2869009;-53
2022/02/25 04:32:52;;;;;;;;;45.00;39.00;;;;;0.45;79.83;99659.28;6279462;20;2870040;-53
2022/02/25 04:35:21;;;;;;;;;45.00;38.00;;;;;0.82;78.82;99659.34;6277379;20;2500377;-52
2022/02/25 04:37:50;;;;;;;;;34.00;29.50;;;;;0.57;79.36;99668.72;6283500;20;2851460;-55
2022/02/25 04:40:18;;;;;;;;;47.00;37.00;;;;;0.56;78.58;99667.84;6275126;20;2500376;-55
2022/02/25 04:42:47;;;;;;;;;56.00;46.00;;;;;0.49;79.56;99660.09;6281613;20;2853390;-54
2022/02/25 04:45:16;;;;;;;;;56.67;41.67;;;;;0.62;79.18;99659.78;6278591;20;3634728;-52
2022/02/25 04:47:45;;;;;;;;;52.00;43.67;;;;;0.30;81.06;99654.31;6311955;20;2866963;-55
2022/02/25 04:50:16;;;;;;;;;62.33;43.67;;;;;0.69;78.76;99667.59;6311563;20;3634647;-53
2022/02/25 04:52:45;;;;;;;;;53.50;42.00;;;;;0.71;78.81;99660.47;6308913;20;2872142;-49
2022/02/25 04:55:13;;;;;;;;;56.00;46.00;;;;;0.43;79.05;99645.25;6275323;20;2500254;-52
2022/02/25 04:57:43;;;;;;;;;54.00;42.00;;;;;0.72;79.76;99654.31;6282286;20;2890042;-53
2022/02/25 05:00:15;;;;;;;;;52.50;44.00;;;;;0.49;80.33;99653.03;6309772;20;2865982;-55
2022/02/25 05:02:46;;;;;;;;;45.00;38.00;;;;;0.13;81.22;99650.25;6271770;20;2500418;-53
2022/02/25 05:05:14;;;;;;;;;44.50;33.50;;;;;-0.07;82.10;99634.78;6277539;20;2500327;-55
2022/02/25 05:07:43;;;;;;;;;41.00;35.00;;;;;0.20;81.10;99637.78;6276359;20;2500374;-53
2022/02/25 05:10:11;;;;;;;;;47.50;40.50;;;;;-0.06;82.51;99638.28;6278125;20;2864859;-54
2022/02/25 05:12:39;;;;;;;;;40.50;33.00;;;;;0.05;82.78;99638.94;6279465;20;2500309;-54
2022/02/25 05:20:43;;;;;;;;;53.00;46.00;;;;;-0.39;82.52;99638.03;6279061;20;2858567;-55
2022/02/25 05:23:12;;;;;;;;;59.50;47.50;;;;;-0.17;82.75;99627.94;6281434;20;2869053;-53
2022/02/25 05:25:41;;;;;;;;;55.50;42.50;;;;;-0.15;83.27;99620.88;6276941;20;2876364;-43
2022/02/25 05:28:11;;;;;;;;;64.00;47.00;;;;;0.22;82.33;99647.41;6282039;20;2869214;-45
2022/02/25 05:30:40;;;;;;;;;65.50;54.00;;;;;0.34;80.58;99670.06;6279290;20;2857591;-44
2022/02/25 05:33:09;;;;;;;;;67.75;52.50;;;;;0.51;80.17;99664.44;6280028;20;3614873;-43
2022/02/25 05:35:39;;;;;;;;;65.67;49.00;;;;;0.38;80.81;99668.22;6308106;20;2863540;-46
2022/02/25 05:38:08;;;;;;;;;58.50;46.50;;;;;0.33;80.07;99680.66;6310342;20;2871389;-44
2022/02/25 05:40:38;;;;;;;;;61.33;43.33;;;;;0.19;80.46;99681.81;6277996;20;2874323;-48
2022/02/25 05:43:07;;;;;;;;;52.00;44.00;;;;;-0.13;81.44;99671.84;6312014;20;2848258;-45
2022/02/25 05:45:36;;;;;;;;;63.00;45.50;;;;;0.05;81.33;99670.63;6284600;20;2862738;-43
2022/02/25 05:48:06;;;;;;;;;60.33;40.67;;;;;-0.38;82.43;99660.88;6283886;20;2890901;-44
2022/02/25 05:50:36;;;;;;;;;41.50;35.50;;;;;-0.43;81.82;99657.44;6315157;20;2860712;-44
2022/02/25 05:53:04;;;;;;;;;37.00;34.00;;;;;-0.58;83.71;99652.41;6281357;20;2500284;-43
2022/02/25 05:55:32;;;;;;;;;37.00;29.00;;;;;-0.12;82.23;99656.91;6285108;20;2500268;-44
2022/02/25 05:58:03;;;;;;;;;41.00;35.67;;;;;0.12;81.41;99659.06;6285216;20;3583585;-48
2022/02/25 06:00:37;;;;;;;;;66.00;54.50;;;;;0.12;81.39;99655.53;6281888;20;2498192;-47
2022/02/25 06:03:06;;;;;;;;;65.50;49.00;;;;;-0.14;81.00;99653.41;6283846;20;2860662;-52
2022/02/25 06:05:35;;;;;;;;;67.67;51.33;;;;;-0.55;82.92;99660.31;6284392;20;2874875;-47
2022/02/25 06:08:05;;;;;;;;;71.33;50.33;;;;;-0.52;82.73;99639.16;6316436;20;2879402;-48
2022/02/25 06:10:34;;;;;;;;;63.00;47.50;;;;;-0.71;83.88;99647.38;6317444;20;2870043;-46
2022/02/25 06:13:02;;;;;;;;;68.00;48.00;;;;;-0.26;82.06;99649.25;6283347;20;2861752;-48
2022/02/25 06:15:31;;;;;;;;;60.00;46.00;;;;;-0.02;82.18;99653.19;6286320;20;2878422;-46
2022/02/25 06:18:01;;;;;;;;;59.67;47.33;;;;;0.05;81.46;99660.06;6284486;20;3596090;-46
2022/02/25 06:20:30;;;;;;;;;50.00;43.00;;;;;0.13;81.29;99673.13;6285407;20;2865905;-47
2022/02/25 06:22:58;;;;;;;;;64.00;51.00;;;;;0.42;79.65;99670.78;6282367;20;2478806;-47
2022/02/25 06:25:27;;;;;;;;;65.33;45.33;;;;;0.35;80.32;99681.50;6284604;20;2891933;-46
2022/02/25 06:27:55;;;;;;;;;62.00;47.00;;;;;0.46;80.25;99684.78;6311186;20;2508593;-47
2022/02/25 06:30:25;;;;;;;;;66.00;42.67;;;;;0.44;79.98;99686.59;6282308;20;3640843;-48
2022/02/25 06:32:55;;;;;;;;;61.33;44.00;;;;;0.20;80.33;99680.88;6316831;20;2860810;-48
2022/02/25 06:35:28;;;;;;;;;69.00;48.67;;;;;0.31;79.57;99688.59;6313805;20;2878495;-46
2022/02/25 06:37:57;;;;;;;;;59.00;45.00;;;;;0.97;78.77;99694.25;6313365;20;2496119;-48
2022/02/25 06:40:26;;;;;;;;;62.00;47.50;;;;;0.84;79.46;99691.00;6282294;20;2867982;-51
2022/02/25 06:42:56;;;;;;;;;70.67;50.33;;;;;1.13;77.28;99689.50;6285035;20;2882597;-48
2022/02/25 06:45:25;;;;;;;;;68.50;55.00;;;;;1.39;77.14;99697.69;6314127;20;2879406;-46
2022/02/25 06:47:53;;;;;;;;;66.00;52.00;;;;;1.51;76.78;99707.97;6280331;20;2500307;-48
2022/02/25 06:50:22;;;;;;;;;65.67;49.33;;;;;1.72;76.05;99717.16;6282355;20;3617011;-48
2022/02/25 06:52:50;;;;;;;;;61.00;49.50;;;;;2.03;75.53;99726.09;6277414;20;2500285;-49
2022/02/25 06:55:20;;;;;;;;;71.33;53.00;;;;;2.06;75.05;99732.19;6282844;20;2898171;-50
2022/02/25 06:58:06;;;;;;;;;67.00;48.50;;;;;2.30;75.82;99732.44;6316149;20;2865956;-51
2022/02/25 07:00:39;;;;;;;;;66.00;48.50;;;;;3.58;71.12;99735.72;6285024;20;2874362;-47
2022/02/25 07:03:07;;;;;;;;;52.50;41.00;;;;;4.99;65.42;99751.16;6281631;20;2496075;-51
2022/02/25 07:05:39;;;;;;;;;51.50;41.50;;;;;5.79;61.82;99754.22;6281515;20;2860661;-50
2022/02/25 07:08:10;;;;;;;;;52.00;39.67;;;;;5.73;61.19;99771.31;6283303;20;2870306;-51
2022/02/25 07:10:41;;;;;;;;;52.67;37.00;;;;;5.71;60.57;99772.31;6314576;20;3630454;-48
2022/02/25 07:13:11;;;;;;;;;50.33;38.33;;;;;5.33;61.56;99769.38;6284139;20;2877391;-49
2022/02/25 07:15:41;;;;;;;;;68.00;54.33;;;;;4.65;64.34;99775.47;6314757;20;3649201;-46
2022/02/25 07:18:10;;;;;;;;;43.00;40.00;;;;;5.12;63.43;99772.88;6316682;20;2849363;-47
2022/02/25 07:20:40;;;;;;;;;56.67;42.00;;;;;4.93;63.08;99762.91;6283141;20;2874424;-48
2022/02/25 07:23:11;;;;;;;;;42.67;38.00;;;;;4.82;64.29;99758.00;6316894;20;2862790;-49
2022/02/25 07:25:42;;;;;;;;;49.67;38.33;;;;;4.28;66.14;99774.13;6318663;20;2873306;-47
2022/02/25 07:28:11;;;;;;;;;63.50;46.00;;;;;4.41;66.01;99788.72;6319171;20;2880574;-48
2022/02/25 07:30:39;;;;;;;;;65.00;49.00;;;;;4.64;65.50;99771.09;6281870;20;2497141;-48
2022/02/25 07:33:09;;;;;;;;;56.67;41.00;;;;;3.54;69.56;99743.81;6286430;20;2871094;-47
2022/02/25 07:35:38;;;;;;;;;56.00;42.00;;;;;3.93;68.53;99773.53;6319160;20;2870179;-44
2022/02/25 07:38:07;;;;;;;;;61.00;46.00;;;;;4.28;68.77;99806.00;6316551;20;2875333;-43
2022/02/25 07:40:36;;;;;;;;;52.00;41.50;;;;;4.10;67.90;99808.34;6287986;20;2867965;-51
2022/02/25 07:43:05;;;;;;;;;64.00;51.00;;;;;4.57;66.99;99815.63;6286100;20;2864834;-51
2022/02/25 07:45:34;;;;;;;;;52.50;42.50;;;;;4.35;67.48;99808.41;6287477;20;2860683;-51
2022/02/25 07:48:05;;;;;;;;;46.67;35.33;;;;;4.51;66.95;99810.53;6286577;20;3620158;-47
2022/02/25 07:50:35;;;;;;;;;43.00;40.33;;;;;4.60;66.19;99807.56;6316026;20;2869138;-49
2022/02/25 07:53:05;;;;;;;;;52.33;38.00;;;;;4.33;67.60;99806.72;6316513;20;3651254;-45
2022/02/25 07:55:35;;;;;;;;;52.67;40.67;;;;;5.12;65.02;99810.13;6285429;20;3620056;-48
2022/02/25 07:58:04;;;;;;;;;57.50;44.00;;;;;4.95;64.78;99821.38;6316951;20;2877377;-47
2022/02/25 08:00:34;;;;;;;;;77.67;57.33;;;;;4.52;66.78;99815.78;6285218;20;3647207;-46
2022/02/25 08:03:04;;;;;;;;;53.67;42.00;;;;;5.11;65.22;99819.00;6318482;20;3614840;-46
2022/02/25 08:05:36;;;;;;;;;71.00;53.33;;;;;4.89;65.77;99819.81;6314247;20;3647138;-47
2022/02/25 08:08:07;;;;;;;;;75.33;57.67;;;;;5.50;64.19;99817.53;6315672;20;2882662;-49
2022/02/25 08:10:36;;;;;;;;;62.00;45.50;;;;;5.23;65.04;99810.59;6311509;20;2489832;-48
2022/02/25 08:13:08;;;;;;;;;79.67;59.67;;;;;5.43;64.66;99816.03;6286370;20;3656500;-47
2022/02/25 08:15:37;;;;;;;;;62.00;49.00;;;;;5.66;63.15;99827.56;6317548;20;2862780;-49
2022/02/25 08:18:08;;;;;;;;;59.33;44.33;;;;;5.65;63.47;99832.03;6287253;20;2866995;-49
2022/02/25 08:20:39;;;;;;;;;66.00;49.33;;;;;6.01;62.77;99822.69;6318240;20;3625188;-48
2022/02/25 08:23:09;;;;;;;;;46.33;35.00;;;;;5.92;63.03;99829.19;6318490;20;3632506;-49
2022/02/25 08:25:40;;;;;;;;;63.67;49.33;;;;;5.64;63.22;99824.13;6317733;20;3627296;-49
2022/02/25 08:28:10;;;;;;;;;55.00;41.33;;;;;5.58;63.36;99824.34;6319082;20;3632718;-48
2022/02/25 08:30:40;;;;;;;;;54.00;41.67;;;;;6.24;62.09;99814.59;6316893;20;3608568;-47
2022/02/25 08:33:11;;;;;;;;;43.33;36.00;;;;;6.60;61.20;99811.28;6316449;20;3615951;-47
2022/02/25 08:35:42;;;;;;;;;36.67;32.00;;;;;6.31;61.20;99801.88;6317872;20;3600212;-47
2022/02/25 08:38:12;;;;;;;;;44.00;37.33;;;;;6.48;61.67;99803.84;6315908;20;2864023;-46
2022/02/25 08:40:41;;;;;;;;;48.33;38.00;;;;;7.20;59.56;99801.47;6320844;20;3612748;-46
2022/02/25 08:43:11;;;;;;;;;46.00;39.00;;;;;7.22;58.79;99793.41;6285326;20;2854532;-48
2022/02/25 08:45:41;;;;;;;;;45.67;35.33;;;;;7.21;59.90;99794.34;6317342;20;3621089;-47
2022/02/25 08:48:11;;;;;;;;;35.00;29.33;;;;;7.93;57.12;99796.28;6317453;20;2846248;-48
2022/02/25 08:50:41;;;;;;;;;59.67;47.00;;;;;7.86;55.67;99787.66;6320055;20;3605457;-46
2022/02/25 08:53:11;;;;;;;;;41.33;35.00;;;;;7.52;57.59;99767.06;6283096;20;2860912;-49
2022/02/25 08:55:41;;;;;;;;;36.00;32.67;;;;;6.80;58.78;99789.94;6316750;20;3592973;-48
2022/02/25 08:58:10;;;;;;;;;37.00;29.00;;;;;7.22;58.41;99791.59;6284263;20;2860895;-50
2022/02/25 09:00:40;;;;;;;;;44.67;38.00;;;;;6.94;59.12;99809.81;6289355;20;3605808;-46
2022/02/25 09:03:11;;;;;;;;;36.00;30.00;;;;;6.97;59.42;99815.00;6283543;20;2859717;-47
2022/02/25 09:05:41;;;;;;;;;53.33;42.33;;;;;7.53;58.65;99808.88;6313578;20;2874223;-47
2022/02/25 09:08:09;;;;;;;;;43.00;36.67;;;;;7.35;57.79;99805.25;6319994;20;3613999;-49
2022/02/25 09:10:41;;;;;;;;;52.33;40.00;;;;;7.28;58.50;99801.13;6284447;20;3626285;-46
2022/02/25 09:13:11;;;;;;;;;46.33;35.33;;;;;6.99;58.35;99818.47;6316899;20;3621097;-50
2022/02/25 09:15:41;;;;;;;;;34.67;27.33;;;;;7.33;57.78;99803.59;6315545;20;2859648;-49
2022/02/25 09:18:13;;;;;;;;;33.33;29.00;;;;;7.57;57.30;99805.09;6315676;20;2854514;-47
2022/02/25 09:20:45;;;;;;;;;29.00;28.50;;;;;7.96;56.56;99809.47;6314683;20;2847234;-47
2022/02/25 09:23:14;;;;;;;;;32.50;27.50;;;;;8.20;55.94;99809.22;6285653;20;2844095;-50
2022/02/25 09:25:43;;;;;;;;;31.00;24.50;;;;;8.04;55.57;99831.38;6284215;20;2841953;-48
2022/02/25 09:28:12;;;;;;;;;23.00;21.50;;;;;8.29;55.32;99825.69;6287966;20;2833694;-50
2022/02/25 09:30:42;;;;;;;;;55.00;43.00;;;;;8.66;54.31;99822.97;6284658;20;2892001;-47
2022/02/25 09:33:10;;;;;;;;;26.00;21.50;;;;;8.98;53.93;99830.19;6283363;20;2841900;-50
2022/02/25 09:35:39;;;;;;;;;26.50;22.00;;;;;8.23;53.98;99833.13;6282570;20;2844054;-50
2022/02/25 09:38:09;;;;;;;;;34.00;27.33;;;;;9.05;51.69;99830.72;6285472;20;2867215;-50
2022/02/25 09:40:39;;;;;;;;;22.00;20.00;;;;;9.29;51.26;99836.56;6315634;20;2824358;-49
2022/02/25 09:43:07;;;;;;;;;26.00;24.00;;;;;8.90;52.08;99847.59;6280975;20;2500303;-47
2022/02/25 09:45:36;;;;;;;;;33.00;25.00;;;;;9.06;52.32;99843.19;6284233;20;2858572;-46
2022/02/25 09:48:10;;;;;;;;;30.50;28.50;;;;;9.38;52.33;99844.13;6283389;20;2848177;-46
2022/02/25 09:50:42;;;;;;;;;32.00;26.50;;;;;9.71;51.00;99840.53;6284676;20;2845569;-46
2022/02/25 09:53:11;;;;;;;;;34.00;28.00;;;;;10.12;50.58;99842.72;6282181;20;2844045;-48
2022/02/25 09:55:39;;;;;;;;;22.00;22.00;;;;;10.37;50.19;99850.22;6283393;20;2846629;-46
2022/02/25 09:58:09;;;;;;;;;35.67;25.67;;;;;10.10;49.17;99848.16;6281597;20;3613999;-49
2022/02/25 10:00:41;;;;;;;;;25.67;21.67;;;;;9.76;50.76;99857.25;6319980;20;3577288;-50
2022/02/25 10:03:17;;;;;;;;;30.67;25.33;;;;;9.65;51.00;99859.66;6316220;20;3600240;-47
2022/02/25 10:05:49;;;;;;;;;26.50;21.50;;;;;9.65;50.85;99855.16;6279380;20;2831530;-50
2022/02/25 10:08:23;;;;;;;;;31.00;24.50;;;;;9.63;50.95;99853.50;6282025;20;2850278;-48
2022/02/25 10:10:59;;;;;;;;;36.67;30.00;;;;;9.58;51.45;99861.78;6282849;20;3596112;-50
2022/02/25 10:13:31;;;;;;;;;28.00;22.00;;;;;9.89;50.72;99847.56;6313657;20;2847234;-51
2022/02/25 10:16:27;;;;;;;;;28.50;21.50;;;;;10.07;50.34;99842.13;6283326;20;2850262;-49
2022/02/25 10:19:01;;;;;;;;;37.33;22.33;;;;;9.85;50.62;99848.69;6279400;20;2863992;-52
2022/02/25 10:21:30;;;;;;;;;35.33;23.67;;;;;10.05;50.38;99849.38;6315229;20;3614805;-47
2022/02/25 10:24:08;;;;;;;;;44.67;35.00;;;;;9.83;50.72;99850.59;6314761;20;3614834;-51
2022/02/25 10:26:37;;;;;;;;;28.67;22.67;;;;;10.25;50.26;99840.19;6316548;20;3575244;-44
2022/02/25 10:29:09;;;;;;;;;35.33;25.67;;;;;10.08;50.57;99843.84;6279646;20;2864918;-49
2022/02/25 10:31:39;;;;;;;;;43.67;35.00;;;;;10.27;50.31;99839.19;6317191;20;3626250;-49
2022/02/25 10:34:17;;;;;;;;;47.25;35.75;;;;;10.25;50.72;99841.06;6323213;20;3642923;-48
2022/02/25 10:36:55;;;;;;;;;29.50;24.00;;;;;10.72;49.70;99850.88;6317787;20;2845069;-50
2022/02/25 10:39:30;;;;;;;;;27.00;22.00;;;;;10.64;49.34;99841.53;6287826;20;3578463;-48
2022/02/25 10:42:06;;;;;;;;;23.00;22.50;;;;;10.52;49.63;99846.66;6286816;20;2838897;-48
2022/02/25 10:44:55;;;;;;;;;21.50;18.50;;;;;10.54;49.53;99841.22;6286566;20;2498182;-52
2022/02/25 10:47:30;;;;;;;;;23.00;17.00;;;;;10.71;48.89;99837.50;6289366;20;3558589;-49
2022/02/25 10:50:12;;;;;;;;;22.00;21.00;;;;;11.19;48.46;99841.75;6287137;20;2840509;-52
2022/02/25 10:52:45;;;;;;;;;23.00;20.50;;;;;11.06;48.27;99843.47;6286692;20;2839836;-51
2022/02/25 10:55:27;;;;;;;;;27.50;23.00;;;;;11.51;47.93;99840.72;6289106;20;2854470;-47
2022/02/25 10:57:58;;;;;;;;;14.00;12.00;;;;;10.68;48.81;99826.97;6287949;20;2796071;-47
2022/02/25 11:00:26;;;;;;;;;21.50;19.00;;;;;10.86;48.66;99830.38;6316842;20;2500351;-51
2022/02/25 11:03:00;;;;;;;;;20.00;20.00;;;;;11.03;48.24;99832.00;6286367;20;2490254;-47
2022/02/25 11:05:34;;;;;;;;;17.50;17.50;;;;;11.13;47.79;99828.66;6287337;20;2823163;-48
2022/02/25 11:08:05;;;;;;;;;24.50;20.50;;;;;11.21;48.34;99831.75;6286085;20;2845086;-51
2022/02/25 11:10:35;;;;;;;;;17.00;17.00;;;;;11.23;47.93;99831.66;6284047;20;2492027;-51
2022/02/25 11:13:06;;;;;;;;;29.00;24.50;;;;;12.05;47.25;99828.25;6283296;20;2500348;-51
2022/02/25 11:15:42;;;;;;;;;26.00;23.50;;;;;12.19;47.11;99818.38;6284193;20;2850329;-47
2022/02/25 11:18:13;;;;;;;;;25.00;22.00;;;;;11.75;47.28;99832.91;6288189;20;2844015;-46
2022/02/25 11:20:42;;;;;;;;;19.00;17.00;;;;;11.25;47.98;99831.59;6287436;20;2825241;-47
2022/02/25 11:23:15;;;;;;;;;22.00;20.00;;;;;11.10;48.77;99823.50;6287559;20;2496103;-51
2022/02/25 11:25:45;;;;;;;;;19.00;15.67;;;;;11.11;49.03;99827.03;6284997;20;3550274;-47
2022/02/25 11:28:16;;;;;;;;;24.00;20.00;;;;;11.05;49.78;99820.22;6319583;20;2831616;-50